Time;durP1;ratioP1;P1;durP2;ratioP2;P2;SDS_P1;SDS_P2;PMS_P1;PMS_P2;Temp;Humidity;BMP_temperature;BMP_pressure;BME280_temperature;BME280_humidity;BME280_pressure;Samples;Min_cycle;Max_cycle;Signal;HPM_P1;HPM_P2
2021/10/04 00:02:10;;;;;;;5.82;5.32;;;16.30;99.90;;;;;;5036048;28;20218;-76
2021/10/04 00:04:39;;;;;;;5.22;4.82;;;16.30;99.90;;;;;;5041842;28;20237;-77
2021/10/04 00:07:06;;;;;;;5.80;4.88;;;16.30;99.90;;;;;;5040715;28;20214;-76
2021/10/04 00:09:33;;;;;;;5.13;4.72;;;16.30;99.90;;;;;;5035923;28;20223;-76
2021/10/04 00:12:01;;;;;;;5.40;4.90;;;16.30;99.90;;;;;;5036927;28;20509;-75
2021/10/04 00:14:28;;;;;;;4.63;4.22;;;16.30;99.90;;;;;;5041738;28;20241;-76
2021/10/04 00:16:56;;;;;;;4.70;4.30;;;16.30;99.90;;;;;;5039663;28;20223;-76
2021/10/04 00:19:24;;;;;;;5.35;4.95;;;16.30;99.90;;;;;;5041782;28;20704;-76
2021/10/04 00:21:52;;;;;;;8.27;6.63;;;16.30;99.90;;;;;;5045087;28;20218;-76
2021/10/04 00:24:19;;;;;;;7.65;6.95;;;16.20;99.90;;;;;;5039499;28;20639;-77
2021/10/04 00:26:46;;;;;;;6.82;6.22;;;16.20;99.90;;;;;;5039445;28;20704;-76
2021/10/04 00:29:14;;;;;;;6.13;5.53;;;16.20;99.90;;;;;;5042621;28;20223;-77
2021/10/04 00:31:41;;;;;;;5.82;5.32;;;16.10;99.90;;;;;;5039005;28;20230;-77
2021/10/04 00:34:08;;;;;;;7.20;5.53;;;16.10;99.90;;;;;;5036019;28;20229;-75
2021/10/04 00:36:35;;;;;;;5.20;4.80;;;16.10;99.90;;;;;;5042047;28;20577;-77
2021/10/04 00:39:04;;;;;;;5.82;5.32;;;16.10;99.90;;;;;;5042235;28;20280;-77
2021/10/04 00:41:32;;;;;;;5.72;5.22;;;16.10;99.90;;;;;;5038042;28;20230;-77
2021/10/04 00:43:59;;;;;;;6.18;5.57;;;16.10;99.90;;;;;;5038917;28;20258;-77
2021/10/04 00:46:27;;;;;;;6.82;6.13;;;16.10;99.90;;;;;;5037653;28;20692;-76
2021/10/04 00:48:54;;;;;;;8.43;7.63;;;16.10;99.90;;;;;;5031525;28;20228;-78
2021/10/04 00:51:22;;;;;;;8.23;7.38;;;16.10;99.90;;;;;;5038510;28;20227;-76
2021/10/04 00:53:50;;;;;;;6.13;5.57;;;16.10;99.90;;;;;;5041183;28;20757;-77
2021/10/04 00:56:19;;;;;;;6.85;6.25;;;16.10;99.90;;;;;;5039504;28;20336;-76
2021/10/04 00:58:47;;;;;;;6.68;6.03;;;16.10;99.90;;;;;;5040465;28;20226;-76
2021/10/04 01:01:14;;;;;;;6.95;6.35;;;16.10;99.90;;;;;;5037704;28;20234;-77
2021/10/04 01:03:42;;;;;;;6.90;6.20;;;16.10;99.90;;;;;;5031768;28;20227;-77
2021/10/04 01:06:09;;;;;;;6.75;6.15;;;16.10;99.90;;;;;;5040037;28;20239;-77
2021/10/04 01:08:36;;;;;;;6.32;5.72;;;16.00;99.90;;;;;;5040684;28;20779;-77
2021/10/04 01:11:03;;;;;;;6.65;6.05;;;16.10;99.90;;;;;;5062005;28;20226;-76
2021/10/04 01:13:31;;;;;;;7.57;6.88;;;16.00;99.90;;;;;;5046579;28;20234;-76
2021/10/04 01:15:58;;;;;;;7.30;6.60;;;16.00;99.90;;;;;;5058365;28;20825;-76
2021/10/04 01:18:25;;;;;;;6.82;6.22;;;16.00;99.90;;;;;;5061406;28;20230;-78
2021/10/04 01:20:54;;;;;;;6.18;5.57;;;16.00;99.90;;;;;;5062748;28;20278;-74
2021/10/04 01:23:21;;;;;;;5.85;5.35;;;16.00;99.90;;;;;;5064085;28;20296;-76
2021/10/04 01:25:48;;;;;;;5.88;5.28;;;16.00;99.90;;;;;;5061175;28;20292;-76
2021/10/04 01:28:15;;;;;;;6.30;5.70;;;16.00;99.90;;;;;;5059745;28;20346;-76
2021/10/04 01:30:42;;;;;;;6.45;5.85;;;16.00;99.90;;;;;;5047539;28;20591;-77
2021/10/04 01:33:09;;;;;;;5.95;5.43;;;16.00;99.90;;;;;;5050387;28;20235;-76
2021/10/04 01:35:36;;;;;;;6.82;6.22;;;15.90;99.90;;;;;;5047617;28;20231;-77
2021/10/04 01:38:05;;;;;;;6.85;6.20;;;16.00;99.90;;;;;;5046199;28;20226;-77
2021/10/04 01:40:32;;;;;;;7.10;6.25;;;16.00;99.90;;;;;;5062644;28;20226;-77
2021/10/04 01:42:59;;;;;;;5.68;5.18;;;16.00;99.90;;;;;;5062708;28;20229;-77
2021/10/04 01:45:29;;;;;;;5.95;5.43;;;16.00;99.90;;;;;;5062544;28;20272;-77
2021/10/04 01:47:59;;;;;;;5.25;4.80;;;16.00;99.90;;;;;;5063266;28;20272;-77
2021/10/04 01:50:27;;;;;;;5.13;4.65;;;16.00;99.90;;;;;;5061687;28;20214;-77
2021/10/04 01:52:54;;;;;;;5.80;5.22;;;16.00;99.90;;;;;;5055790;28;20218;-77
2021/10/04 01:55:23;;;;;;;5.57;5.07;;;16.00;99.90;;;;;;5048827;28;20541;-77
2021/10/04 01:57:51;;;;;;;6.25;5.65;;;16.00;99.90;;;;;;5040199;28;20238;-77
2021/10/04 02:00:21;;;;;;;5.90;5.38;;;16.00;99.90;;;;;;5042691;28;20230;-76
2021/10/04 02:02:51;;;;;;;5.53;5.03;;;16.00;99.90;;;;;;5042816;28;20222;-76
2021/10/04 02:05:20;;;;;;;6.05;5.55;;;15.90;99.90;;;;;;5042241;28;20276;-76
2021/10/04 02:07:48;;;;;;;6.38;5.75;;;15.90;99.90;;;;;;5038461;28;20772;-76
2021/10/04 02:10:17;;;;;;;6.05;5.55;;;15.90;99.90;;;;;;5045324;28;20270;-77
2021/10/04 02:12:46;;;;;;;6.20;5.60;;;15.90;99.90;;;;;;5040439;28;20226;-75
2021/10/04 02:15:14;;;;;;;5.63;5.13;;;15.90;99.90;;;;;;5044498;28;20219;-76
2021/10/04 02:17:42;;;;;;;5.85;5.35;;;15.90;99.90;;;;;;5040906;28;20231;-76
2021/10/04 02:20:12;;;;;;;6.32;5.75;;;15.80;99.90;;;;;;5041100;28;20287;-76
2021/10/04 02:22:40;;;;;;;6.43;5.82;;;15.80;99.90;;;;;;5030546;28;20279;-76
2021/10/04 02:25:08;;;;;;;6.88;6.10;;;15.80;99.90;;;;;;5042078;28;20580;-76
2021/10/04 02:27:35;;;;;;;9.07;8.18;;;15.80;99.90;;;;;;5039849;28;20252;-76
2021/10/04 02:30:06;;;;;;;6.97;6.30;;;15.80;99.90;;;;;;5042496;28;20779;-77
2021/10/04 02:32:33;;;;;;;6.43;5.88;;;15.80;99.90;;;;;;5038659;28;20641;-76
2021/10/04 02:35:00;;;;;;;6.10;5.60;;;15.70;99.90;;;;;;5038736;28;20546;-75
2021/10/04 02:37:27;;;;;;;6.78;6.18;;;15.70;99.90;;;;;;5042983;28;20276;-75
2021/10/04 02:39:54;;;;;;;5.97;5.47;;;15.70;99.90;;;;;;5044376;28;20264;-76
2021/10/04 02:42:21;;;;;;;5.75;5.25;;;15.70;99.90;;;;;;5042248;28;20227;-76
2021/10/04 02:44:49;;;;;;;5.75;5.25;;;15.70;99.90;;;;;;5043773;28;20226;-76
2021/10/04 02:47:17;;;;;;;5.78;5.28;;;15.70;99.90;;;;;;5043430;28;20226;-76
2021/10/04 02:49:44;;;;;;;6.85;6.05;;;15.70;99.90;;;;;;5038839;28;20304;-76
2021/10/04 02:52:12;;;;;;;6.43;5.82;;;15.70;99.90;;;;;;5041857;28;20761;-76
2021/10/04 02:57:11;;;;;;;6.95;6.25;;;15.70;99.90;;;;;;5022917;28;20235;-72
2021/10/04 02:59:38;;;;;;;6.15;5.65;;;15.70;99.90;;;;;;5030995;28;20251;-71
2021/10/04 03:02:05;;;;;;;7.10;6.47;;;15.60;99.90;;;;;;5038059;28;20662;-71
2021/10/04 03:04:34;;;;;;;6.97;6.28;;;15.60;99.90;;;;;;5029437;28;20288;-71
2021/10/04 03:07:01;;;;;;;5.65;5.20;;;15.70;99.90;;;;;;5033755;28;20640;-71
2021/10/04 03:09:28;;;;;;;6.47;5.88;;;15.70;99.90;;;;;;5034096;28;20239;-71
2021/10/04 03:11:55;;;;;;;5.70;5.20;;;15.70;99.90;;;;;;5043960;28;20978;-71
2021/10/04 03:14:22;;;;;;;6.13;5.53;;;15.70;99.90;;;;;;5048514;28;20288;-70
2021/10/04 03:16:49;;;;;;;5.93;5.43;;;15.70;99.90;;;;;;5039062;28;20227;-71
2021/10/04 03:19:17;;;;;;;6.20;5.60;;;15.70;99.90;;;;;;5036269;28;20285;-71
2021/10/04 03:21:45;;;;;;;5.63;5.05;;;15.70;99.90;;;;;;5031781;28;20783;-70
2021/10/04 03:24:13;;;;;;;5.55;4.63;;;15.80;99.90;;;;;;5045288;28;20236;-71
2021/10/04 03:26:40;;;;;;;5.32;4.78;;;15.80;99.90;;;;;;5038422;28;20218;-71
2021/10/04 03:29:09;;;;;;;4.93;4.50;;;15.70;99.90;;;;;;5041473;28;20246;-72
2021/10/04 03:31:36;;;;;;;4.85;4.45;;;15.80;99.90;;;;;;5049119;28;20361;-71
2021/10/04 03:34:03;;;;;;;5.28;4.85;;;15.70;99.90;;;;;;5017950;28;20227;-71
2021/10/04 03:36:30;;;;;;;5.10;4.70;;;15.80;99.90;;;;;;5037949;28;20281;-71
2021/10/04 03:38:59;;;;;;;6.43;5.82;;;15.70;99.90;;;;;;5034700;28;20639;-71
2021/10/04 03:41:26;;;;;;;7.20;6.50;;;15.80;99.90;;;;;;5035286;28;20693;-71
2021/10/04 03:43:53;;;;;;;7.45;6.78;;;15.70;99.90;;;;;;5031520;28;20229;-71
2021/10/04 03:46:20;;;;;;;7.28;6.60;;;15.70;99.90;;;;;;5042957;28;20235;-72
2021/10/04 03:48:47;;;;;;;6.40;5.80;;;15.70;99.90;;;;;;5046028;28;20233;-72
2021/10/04 03:51:14;;;;;;;7.10;6.40;;;15.70;99.90;;;;;;5035156;28;20301;-71
2021/10/04 03:53:41;;;;;;;6.68;5.95;;;15.70;99.90;;;;;;5023613;28;20751;-71
2021/10/04 03:56:09;;;;;;;6.38;5.78;;;15.70;99.90;;;;;;5016012;28;20236;-72
2021/10/04 03:58:36;;;;;;;5.50;5.00;;;15.70;99.90;;;;;;5023514;28;20230;-72
2021/10/04 04:01:04;;;;;;;5.85;5.32;;;15.70;99.90;;;;;;5023163;28;20231;-72
2021/10/04 04:03:31;;;;;;;6.20;5.60;;;15.70;99.90;;;;;;5028846;28;20631;-73
2021/10/04 04:05:58;;;;;;;6.40;5.80;;;15.70;99.90;;;;;;5026034;28;20763;-72
2021/10/04 04:08:25;;;;;;;5.70;5.10;;;15.70;99.90;;;;;;5049610;28;20223;-72
2021/10/04 04:10:52;;;;;;;6.05;5.55;;;15.70;99.90;;;;;;5039723;28;20292;-72
2021/10/04 04:13:21;;;;;;;5.88;5.38;;;15.70;99.90;;;;;;5056345;28;20202;-73
2021/10/04 04:15:48;;;;;;;5.75;5.25;;;15.70;99.90;;;;;;5057861;28;20226;-72
2021/10/04 04:18:15;;;;;;;6.20;5.60;;;15.70;99.90;;;;;;5030410;28;20281;-72
2021/10/04 04:20:43;;;;;;;5.88;4.90;;;15.70;99.90;;;;;;5031553;28;20301;-72
2021/10/04 04:23:11;;;;;;;6.22;5.60;;;15.70;99.90;;;;;;5023267;28;20280;-72
2021/10/04 04:25:38;;;;;;;5.97;5.38;;;15.70;99.90;;;;;;5033407;28;20462;-72
2021/10/04 04:28:05;;;;;;;5.13;4.63;;;15.70;99.90;;;;;;5030099;28;20277;-72
2021/10/04 04:30:34;;;;;;;5.50;4.75;;;15.70;99.90;;;;;;5034327;28;20226;-72
2021/10/04 04:33:02;;;;;;;6.13;5.53;;;15.70;99.90;;;;;;5026841;28;20475;-73
2021/10/04 04:35:29;;;;;;;5.10;4.60;;;15.70;99.90;;;;;;5035426;28;20289;-72
2021/10/04 04:37:56;;;;;;;5.95;5.40;;;15.70;99.90;;;;;;5032029;28;20590;-72
2021/10/04 04:40:23;;;;;;;5.18;4.75;;;15.70;99.90;;;;;;5040495;28;20361;-72
2021/10/04 04:42:50;;;;;;;5.57;5.07;;;15.60;99.90;;;;;;5045596;28;20256;-72
2021/10/04 04:45:20;;;;;;;6.50;5.90;;;15.60;99.90;;;;;;5040263;28;20243;-72
2021/10/04 04:47:49;;;;;;;8.05;7.25;;;15.60;99.90;;;;;;5027893;28;20770;-72
2021/10/04 04:50:17;;;;;;;6.72;6.13;;;15.60;99.90;;;;;;5045008;28;20223;-71
2021/10/04 04:52:44;;;;;;;6.70;5.50;;;15.60;99.90;;;;;;5035030;28;20284;-71
2021/10/04 04:55:12;;;;;;;6.97;6.32;;;15.50;99.90;;;;;;5048198;28;20230;-71
2021/10/04 04:57:39;;;;;;;6.57;5.97;;;15.50;99.90;;;;;;5044563;28;20246;-72
2021/10/04 05:00:09;;;;;;;6.80;6.18;;;15.50;99.90;;;;;;5036546;28;20239;-72
2021/10/04 05:02:37;;;;;;;6.43;5.82;;;15.50;99.90;;;;;;5044568;28;20263;-71
2021/10/04 05:05:06;;;;;;;6.28;5.68;;;15.40;99.90;;;;;;5047330;28;20239;-72
2021/10/04 05:07:33;;;;;;;6.95;5.95;;;15.40;99.90;;;;;;5044958;28;20222;-72
2021/10/04 05:10:00;;;;;;;6.47;5.85;;;15.40;99.90;;;;;;5039015;28;20230;-73
2021/10/04 05:12:27;;;;;;;5.95;5.45;;;15.40;99.90;;;;;;5040036;28;20231;-73
2021/10/04 05:14:54;;;;;;;5.57;5.07;;;15.40;99.90;;;;;;5040570;28;20219;-72
2021/10/04 05:17:21;;;;;;;6.55;5.93;;;15.40;99.90;;;;;;5041171;28;20292;-72
2021/10/04 05:19:48;;;;;;;5.95;5.43;;;15.40;99.90;;;;;;5035053;28;20308;-72
2021/10/04 05:22:17;;;;;;;6.25;5.65;;;15.40;99.90;;;;;;5045072;28;20646;-72
2021/10/04 05:24:44;;;;;;;6.53;5.53;;;15.40;99.90;;;;;;5045328;28;20672;-72
2021/10/04 05:27:11;;;;;;;6.07;5.55;;;15.40;99.90;;;;;;5030834;28;20702;-72
2021/10/04 05:29:39;;;;;;;6.28;5.68;;;15.40;99.90;;;;;;5044723;28;20218;-72
2021/10/04 05:32:07;;;;;;;6.53;5.93;;;15.50;99.90;;;;;;5037644;28;20230;-71
2021/10/04 05:34:35;;;;;;;6.50;5.93;;;15.50;99.90;;;;;;5030672;28;20309;-71
2021/10/04 05:37:02;;;;;;;5.70;5.20;;;15.50;99.90;;;;;;5031615;28;20289;-71
2021/10/04 05:39:30;;;;;;;6.30;5.70;;;15.50;99.90;;;;;;5024432;28;20226;-73
2021/10/04 05:41:57;;;;;;;6.22;5.63;;;15.50;99.90;;;;;;5033864;28;20235;-72
2021/10/04 05:44:24;;;;;;;6.75;6.15;;;15.60;99.90;;;;;;5056019;28;20226;-72
2021/10/04 05:46:51;;;;;;;7.28;6.57;;;15.60;99.90;;;;;;5031227;28;20223;-72
2021/10/04 05:49:19;;;;;;;6.70;6.10;;;15.60;99.90;;;;;;5037013;28;20272;-72
2021/10/04 05:51:46;;;;;;;6.78;6.07;;;15.60;99.90;;;;;;5045553;28;20227;-72
2021/10/04 05:54:13;;;;;;;6.30;5.80;;;15.60;99.90;;;;;;5030136;28;20227;-72
2021/10/04 05:56:42;;;;;;;6.22;5.63;;;15.70;99.90;;;;;;5031075;28;20245;-73
2021/10/04 05:59:09;;;;;;;6.07;5.57;;;15.80;99.90;;;;;;5032713;28;20276;-72
2021/10/04 06:01:37;;;;;;;6.88;5.97;;;15.80;99.90;;;;;;5022347;28;20313;-72
2021/10/04 06:04:05;;;;;;;6.10;5.60;;;15.90;99.90;;;;;;5014097;28;20273;-73
2021/10/04 06:06:32;;;;;;;6.15;5.63;;;15.90;99.90;;;;;;5028574;28;20649;-73
2021/10/04 06:08:59;;;;;;;5.90;5.40;;;16.00;99.90;;;;;;5023180;28;20903;-72
2021/10/04 06:11:26;;;;;;;6.57;6.05;;;16.00;99.90;;;;;;5037628;28;20214;-72
2021/10/04 06:13:54;;;;;;;7.00;6.30;;;16.10;99.90;;;;;;5026073;28;20881;-72
2021/10/04 06:16:21;;;;;;;6.40;5.80;;;16.10;99.90;;;;;;5024984;28;20219;-71
2021/10/04 06:18:48;;;;;;;7.75;6.95;;;16.20;99.90;;;;;;5030651;28;20231;-71
2021/10/04 06:21:17;;;;;;;7.15;6.45;;;16.30;99.90;;;;;;5022955;28;20238;-71
2021/10/04 06:23:44;;;;;;;6.78;6.15;;;16.50;99.90;;;;;;5033898;28;20714;-73
2021/10/04 06:26:12;;;;;;;7.70;7.00;;;16.90;99.90;;;;;;5021255;28;20215;-72
2021/10/04 06:28:39;;;;;;;6.75;6.15;;;17.40;99.90;;;;;;5043516;28;20323;-71
2021/10/04 06:31:07;;;;;;;6.15;5.65;;;17.60;99.90;;;;;;5037681;28;20285;-71
2021/10/04 06:33:37;;;;;;;7.07;6.40;;;17.50;99.90;;;;;;5028797;28;20246;-72
2021/10/04 06:36:04;;;;;;;7.40;6.80;;;17.60;99.90;;;;;;5014572;28;20342;-72
2021/10/04 06:38:32;;;;;;;8.98;8.07;;;17.50;99.90;;;;;;5033631;28;20238;-72
2021/10/04 06:40:59;;;;;;;7.60;6.90;;;17.40;99.90;;;;;;5023086;28;20755;-73
2021/10/04 06:43:26;;;;;;;8.48;7.57;;;17.70;99.90;;;;;;5022444;28;20239;-73
2021/10/04 06:45:53;;;;;;;8.43;7.63;;;17.80;99.90;;;;;;5033724;28;20246;-73
2021/10/04 06:48:23;;;;;;;8.98;7.85;;;17.70;99.90;;;;;;5035958;28;20234;-74
2021/10/04 06:50:51;;;;;;;8.90;8.07;;;17.60;99.90;;;;;;5024626;28;20234;-74
2021/10/04 06:53:18;;;;;;;9.02;8.13;;;17.80;99.90;;;;;;5022962;28;20253;-74
2021/10/04 06:55:45;;;;;;;8.20;7.40;;;18.40;99.90;;;;;;5018492;28;20235;-73
2021/10/04 06:58:12;;;;;;;8.55;7.65;;;18.80;99.90;;;;;;5016152;28;20335;-73
2021/10/04 07:00:39;;;;;;;7.90;7.20;;;18.90;99.90;;;;;;4991105;28;20691;-72
2021/10/04 07:03:06;;;;;;;7.40;6.75;;;19.20;99.90;;;;;;5019104;28;20303;-74
2021/10/04 07:05:35;;;;;;;8.13;7.35;;;19.70;99.90;;;;;;5015097;28;20238;-73
2021/10/04 07:08:02;;;;;;;9.50;8.50;;;20.30;99.90;;;;;;5027834;28;20227;-74
2021/10/04 07:10:29;;;;;;;8.68;7.78;;;20.70;99.90;;;;;;5036623;28;20226;-74
2021/10/04 07:12:56;;;;;;;8.77;7.97;;;21.10;99.90;;;;;;5032157;28;20231;-75
2021/10/04 07:15:24;;;;;;;8.32;7.53;;;21.40;99.90;;;;;;5033570;28;20232;-75
2021/10/04 07:17:51;;;;;;;8.48;7.68;;;21.70;99.90;;;;;;5036612;28;20227;-75
2021/10/04 07:20:18;;;;;;;8.80;7.90;;;21.90;99.90;;;;;;5041601;28;20498;-74
2021/10/04 07:22:46;;;;;;;7.85;7.15;;;22.00;99.90;;;;;;5040323;28;20226;-73
2021/10/04 07:25:13;;;;;;;7.88;7.07;;;21.80;99.90;;;;;;5030897;28;20718;-74
2021/10/04 07:27:41;;;;;;;7.82;7.13;;;21.60;99.90;;;;;;5026434;28;20234;-74
2021/10/04 07:30:09;;;;;;;7.43;6.72;;;21.60;99.90;;;;;;5034210;28;20230;-74
2021/10/04 07:32:36;;;;;;;7.70;7.00;;;21.40;99.90;;;;;;5036284;28;20301;-74
2021/10/04 07:35:04;;;;;;;8.35;7.55;;;21.70;99.90;;;;;;5018446;28;20781;-74
2021/10/04 07:37:31;;;;;;;8.30;7.50;;;22.10;99.90;;;;;;5025672;28;20227;-73
2021/10/04 07:39:59;;;;;;;8.02;7.22;;;21.80;99.90;;;;;;5020274;28;20273;-73
2021/10/04 07:42:26;;;;;;;7.97;7.28;;;21.40;99.90;;;;;;5032565;28;20226;-74
2021/10/04 07:44:53;;;;;;;8.45;7.55;;;21.00;99.90;;;;;;5030845;28;20290;-73
2021/10/04 07:47:21;;;;;;;7.65;6.95;;;20.70;99.90;;;;;;5017624;28;20499;-73
2021/10/04 07:49:48;;;;;;;8.60;7.70;;;20.40;99.90;;;;;;5025577;28;20231;-73
2021/10/04 07:52:15;;;;;;;7.80;7.10;;;20.20;99.90;;;;;;5018762;28;20693;-73
2021/10/04 07:54:42;;;;;;;7.22;6.53;;;20.10;99.90;;;;;;5006641;28;20322;-73
2021/10/04 07:57:13;;;;;;;8.10;7.38;;;20.00;99.90;;;;;;5030615;28;20238;-76
2021/10/04 07:59:41;;;;;;;8.07;7.35;;;19.90;99.90;;;;;;5035648;28;20727;-73
2021/10/04 08:02:08;;;;;;;7.57;6.90;;;19.80;99.90;;;;;;5023498;28;20250;-74
2021/10/04 08:04:36;;;;;;;7.22;6.63;;;19.90;99.90;;;;;;5012336;28;20321;-73
2021/10/04 08:07:04;;;;;;;7.53;6.82;;;19.90;99.90;;;;;;5022155;28;20215;-73
2021/10/04 08:09:31;;;;;;;6.80;6.20;;;20.00;99.90;;;;;;5037778;28;20226;-74
2021/10/04 08:11:58;;;;;;;8.25;7.47;;;20.30;99.90;;;;;;5016784;28;20227;-75
2021/10/04 08:14:27;;;;;;;8.77;7.95;;;21.10;99.90;;;;;;5010591;28;20231;-74
2021/10/04 08:16:54;;;;;;;10.05;7.38;;;21.00;99.90;;;;;;5013508;28;20276;-73
2021/10/04 08:19:21;;;;;;;7.90;7.10;;;20.70;99.90;;;;;;5022034;28;20243;-75
2021/10/04 08:21:48;;;;;;;7.93;7.22;;;20.60;99.90;;;;;;5021940;28;20242;-74
2021/10/04 08:24:15;;;;;;;7.70;7.00;;;20.60;99.90;;;;;;5016783;28;20216;-73
2021/10/04 08:26:43;;;;;;;8.60;7.70;;;20.60;99.90;;;;;;5022358;28;20239;-74
2021/10/04 08:29:10;;;;;;;7.50;6.78;;;20.50;99.90;;;;;;5026687;28;20356;-75
2021/10/04 08:31:38;;;;;;;8.45;7.65;;;20.40;99.90;;;;;;5026187;28;20224;-73
2021/10/04 08:34:07;;;;;;;7.15;6.38;;;20.30;99.90;;;;;;5017699;28;20642;-74
2021/10/04 08:36:35;;;;;;;7.75;6.95;;;20.60;99.90;;;;;;5035534;28;20245;-76
2021/10/04 08:39:04;;;;;;;7.47;6.78;;;21.60;99.90;;;;;;5032155;28;20219;-73
2021/10/04 08:41:33;;;;;;;6.60;6.00;;;22.50;99.90;;;;;;5011798;28;20227;-75
2021/10/04 08:44:04;;;;;;;6.65;6.10;;;23.20;99.90;;;;;;5036779;28;20231;-75
2021/10/04 08:46:37;;;;;;;8.90;8.00;;;23.50;99.90;;;;;;5030772;28;20584;-75
2021/10/04 08:49:06;;;;;;;7.95;7.15;;;23.80;99.90;;;;;;5011572;28;20322;-74
2021/10/04 08:51:34;;;;;;;7.75;7.05;;;23.80;99.90;;;;;;5006643;28;20282;-75
2021/10/04 08:54:01;;;;;;;7.40;6.72;;;23.90;99.90;;;;;;5034076;28;20386;-72
2021/10/04 08:56:28;;;;;;;7.25;6.60;;;24.10;99.90;;;;;;5008315;23;20231;-75
2021/10/04 08:58:55;;;;;;;7.00;6.30;;;24.20;99.90;;;;;;5011472;28;20243;-75
2021/10/04 09:01:23;;;;;;;7.57;6.85;;;24.00;99.90;;;;;;5003781;28;20227;-75
2021/10/04 09:03:54;;;;;;;7.75;7.05;;;23.70;99.90;;;;;;5007944;28;20227;-72
2021/10/04 09:06:27;;;;;;;6.95;6.25;;;23.80;99.90;;;;;;5007460;28;20277;-75
2021/10/04 09:08:56;;;;;;;7.65;6.85;;;24.10;99.90;;;;;;5010616;28;20227;-73
2021/10/04 09:11:35;;;;;;;6.75;6.07;;;24.20;99.90;;;;;;5007668;28;20861;-73
2021/10/04 09:14:07;;;;;;;7.15;6.45;;;24.20;99.90;;;;;;5009442;28;20304;-75
2021/10/04 09:16:59;;;;;;;6.90;6.20;;;24.30;99.90;;;;;;4993683;28;20231;-75
2021/10/04 09:19:28;;;;;;;6.13;5.63;;;24.40;99.90;;;;;;4998708;28;20227;-75
2021/10/04 09:22:18;;;;;;;5.80;5.30;;;24.40;99.90;;;;;;4995941;28;20409;-75
2021/10/04 09:25:02;;;;;;;6.72;6.13;;;24.70;99.90;;;;;;5001270;28;20575;-72
2021/10/04 09:27:31;;;;;;;5.70;5.20;;;24.80;99.90;;;;;;5007791;28;20241;-73
2021/10/04 09:29:59;;;;;;;6.43;5.13;;;24.80;99.90;;;;;;5006822;28;20236;-71
2021/10/04 09:32:29;;;;;;;6.65;5.63;;;24.80;99.90;;;;;;5006919;28;20733;-73
2021/10/04 09:35:17;;;;;;;6.72;5.93;;;24.90;99.90;;;;;;5002483;28;20231;-74
2021/10/04 09:37:47;;;;;;;6.45;5.10;;;24.90;99.90;;;;;;5011289;28;20703;-74
2021/10/04 09:40:42;;;;;;;6.10;5.55;;;24.70;99.90;;;;;;5008348;28;20828;-74
2021/10/04 09:43:10;;;;;;;4.80;4.40;;;24.80;99.90;;;;;;4989522;28;20285;-75
2021/10/04 09:45:38;;;;;;;4.95;4.55;;;24.90;99.90;;;;;;5014139;28;20846;-75
2021/10/04 09:48:12;;;;;;;5.40;5.00;;;25.00;99.90;;;;;;4993633;28;20787;-74
2021/10/04 09:50:41;;;;;;;5.28;4.78;;;25.00;99.90;;;;;;5014059;28;20640;-75
2021/10/04 09:53:13;;;;;;;6.93;5.07;;;25.00;99.90;;;;;;5016315;28;20230;-75
2021/10/04 09:55:41;;;;;;;6.10;5.50;;;25.10;99.90;;;;;;5013258;28;20219;-74
2021/10/04 09:58:15;;;;;;;6.00;5.15;;;25.20;99.90;;;;;;5003028;28;20268;-75
2021/10/04 10:00:46;;;;;;;5.90;5.15;;;25.50;99.90;;;;;;5009137;28;20227;-74
2021/10/04 10:03:18;;;;;;;7.13;5.75;;;25.70;99.90;;;;;;5008757;28;20227;-75
2021/10/04 10:05:49;;;;;;;5.90;5.30;;;25.50;99.90;;;;;;5011557;28;20223;-73
2021/10/04 10:08:20;;;;;;;5.63;5.18;;;25.60;99.90;;;;;;5010752;28;20226;-74
2021/10/04 10:10:47;;;;;;;5.40;4.90;;;25.40;99.90;;;;;;5010801;28;20234;-73
2021/10/04 10:13:16;;;;;;;5.53;5.03;;;25.30;99.90;;;;;;5012989;28;20233;-72
2021/10/04 10:15:48;;;;;;;7.05;6.05;;;25.50;99.90;;;;;;5013112;28;20227;-72
2021/10/04 10:18:20;;;;;;;5.57;5.03;;;25.60;99.90;;;;;;5009010;28;20691;-73
2021/10/04 10:20:58;;;;;;;5.53;5.00;;;25.50;99.90;;;;;;5011440;28;20238;-72
2021/10/04 10:23:49;;;;;;;6.30;5.70;;;25.70;99.90;;;;;;5007857;28;20223;-74
2021/10/04 10:26:31;;;;;;;6.18;5.57;;;25.50;99.90;;;;;;5010130;28;20251;-73
2021/10/04 10:29:35;;;;;;;6.15;5.28;;;25.20;99.90;;;;;;5010910;28;20215;-72
2021/10/04 10:32:35;;;;;;;5.95;5.43;;;25.50;99.90;;;;;;5014916;28;20636;-72
2021/10/04 10:35:02;;;;;;;6.78;4.95;;;25.70;99.90;;;;;;5011416;28;20694;-74
2021/10/04 10:37:45;;;;;;;5.50;5.00;;;25.90;99.90;;;;;;4993263;28;20230;-73
2021/10/04 10:40:15;;;;;;;6.05;5.35;;;25.90;99.90;;;;;;5021816;28;20224;-73
2021/10/04 10:42:59;;;;;;;5.68;5.10;;;25.80;99.90;;;;;;5015523;28;20284;-74
2021/10/04 10:45:26;;;;;;;6.78;4.85;;;26.00;99.90;;;;;;5013530;28;20211;-74
2021/10/04 10:47:58;;;;;;;5.35;4.57;;;25.90;99.90;;;;;;5011382;28;20228;-72
2021/10/04 10:50:30;;;;;;;5.90;4.40;;;26.00;99.90;;;;;;5009970;28;20230;-74
2021/10/04 10:53:28;;;;;;;4.80;4.40;;;26.00;99.90;;;;;;5010720;28;20345;-75
2021/10/04 10:56:02;;;;;;;4.82;4.43;;;26.10;99.90;;;;;;5010605;28;20226;-74
2021/10/04 10:58:30;;;;;;;8.10;4.93;;;26.40;99.90;;;;;;5010664;28;20215;-72
2021/10/04 11:01:16;;;;;;;6.55;5.72;;;26.50;99.90;;;;;;5007714;28;20235;-71
2021/10/04 11:03:52;;;;;;;7.07;4.78;;;26.60;99.90;;;;;;5011016;28;20302;-75
2021/10/04 11:06:20;;;;;;;7.45;5.07;;;26.50;99.90;;;;;;5006097;28;20218;-74
2021/10/04 11:09:01;;;;;;;4.47;4.07;;;26.70;99.90;;;;;;5009031;28;20227;-75
2021/10/04 11:11:34;;;;;;;4.30;3.95;;;27.10;99.90;;;;;;5011102;28;20238;-76
2021/10/04 11:14:16;;;;;;;5.53;4.50;;;27.30;99.90;;;;;;5009503;28;20227;-75
2021/10/04 11:16:56;;;;;;;5.03;4.30;;;26.80;99.90;;;;;;5007689;28;20601;-76
2021/10/04 11:19:30;;;;;;;5.68;3.83;;;26.60;99.90;;;;;;5012314;28;20280;-74
2021/10/04 11:21:58;;;;;;;5.15;4.25;;;26.40;99.90;;;;;;5007361;28;20227;-72
2021/10/04 11:24:26;;;;;;;4.38;3.97;;;25.90;99.90;;;;;;5008427;28;20220;-73
2021/10/04 11:26:56;;;;;;;6.30;3.90;;;25.30;99.90;;;;;;5007977;28;20629;-74
2021/10/04 11:29:25;;;;;;;3.97;3.60;;;24.90;99.90;;;;;;5011797;28;20227;-73
2021/10/04 11:31:52;;;;;;;3.67;3.38;;;24.70;99.90;;;;;;5004937;28;20219;-71
2021/10/04 11:34:21;;;;;;;4.72;4.32;;;24.70;99.90;;;;;;5012013;28;20219;-73
2021/10/04 11:36:51;;;;;;;4.72;3.97;;;24.40;99.90;;;;;;5004779;28;20235;-71
2021/10/04 11:39:19;;;;;;;4.78;4.38;;;24.10;99.90;;;;;;5009031;28;20223;-72
2021/10/04 11:41:48;;;;;;;4.43;4.03;;;23.80;99.90;;;;;;5008718;28;20714;-73
2021/10/04 11:44:20;;;;;;;3.85;3.55;;;23.60;99.90;;;;;;5009302;28;20910;-72
2021/10/04 11:46:50;;;;;;;4.05;3.75;;;23.80;99.90;;;;;;5014687;28;20586;-72
2021/10/04 11:49:20;;;;;;;4.28;3.88;;;23.70;99.90;;;;;;5002769;28;20750;-73
2021/10/04 11:51:50;;;;;;;5.65;3.90;;;23.70;99.90;;;;;;5002335;28;20292;-72
2021/10/04 11:54:39;;;;;;;5.13;3.42;;;23.70;99.90;;;;;;5005775;28;20252;-74
2021/10/04 11:57:08;;;;;;;4.63;3.90;;;24.00;99.90;;;;;;4997749;28;20228;-73
2021/10/04 11:59:55;;;;;;;3.83;3.53;;;24.20;99.90;;;;;;5004918;28;20278;-72
2021/10/04 12:02:24;;;;;;;3.88;3.58;;;24.50;99.90;;;;;;5006289;28;20235;-73
2021/10/04 12:04:52;;;;;;;4.25;3.85;;;24.50;99.90;;;;;;5005332;28;20630;-74
2021/10/04 12:07:21;;;;;;;5.35;4.30;;;24.30;99.90;;;;;;5008336;28;20623;-73
2021/10/04 12:09:56;;;;;;;4.07;3.67;;;24.20;99.90;;;;;;5004988;28;20227;-75
2021/10/04 12:12:34;;;;;;;4.07;3.67;;;23.90;99.90;;;;;;5010316;28;20250;-76
2021/10/04 12:15:03;;;;;;;3.78;3.47;;;23.90;99.90;;;;;;5005363;28;20326;-75
2021/10/04 12:17:35;;;;;;;3.53;3.22;;;24.20;99.90;;;;;;5009773;28;20795;-72
2021/10/04 12:20:03;;;;;;;4.35;3.65;;;24.30;99.90;;;;;;5006150;28;20304;-72
2021/10/04 12:22:31;;;;;;;3.95;3.65;;;24.10;99.90;;;;;;5006702;28;20219;-74
2021/10/04 12:24:58;;;;;;;4.22;3.90;;;23.80;99.90;;;;;;5007629;28;20308;-74
2021/10/04 12:27:25;;;;;;;4.28;3.92;;;23.70;99.90;;;;;;5007970;28;20231;-75
2021/10/04 12:29:59;;;;;;;5.13;4.63;;;23.50;99.90;;;;;;5014740;28;20534;-74
2021/10/04 12:32:31;;;;;;;4.03;3.63;;;23.30;99.90;;;;;;5006303;28;20254;-75
2021/10/04 12:35:14;;;;;;;3.70;3.40;;;23.20;99.90;;;;;;5008544;28;20234;-76
2021/10/04 12:37:45;;;;;;;4.05;3.72;;;23.10;99.90;;;;;;5007229;28;20226;-75
2021/10/04 12:40:31;;;;;;;4.15;3.80;;;23.00;99.90;;;;;;5007752;28;20893;-74
2021/10/04 12:43:04;;;;;;;4.13;3.20;;;23.00;99.90;;;;;;5002518;28;20230;-75
2021/10/04 12:45:31;;;;;;;3.55;3.17;;;22.80;99.90;;;;;;5009272;28;20592;-73
2021/10/04 12:48:05;;;;;;;4.55;3.58;;;22.70;99.90;;;;;;5006960;28;20714;-72
2021/10/04 12:50:35;;;;;;;4.45;3.75;;;22.60;99.90;;;;;;5012027;28;20227;-73
2021/10/04 12:53:15;;;;;;;4.32;3.42;;;22.40;99.90;;;;;;5008601;28;20242;-74
2021/10/04 12:55:52;;;;;;;3.22;2.90;;;22.40;99.90;;;;;;5004505;28;20231;-74
2021/10/04 12:58:19;;;;;;;4.03;3.38;;;22.20;99.90;;;;;;5009058;28;20234;-73
2021/10/04 13:00:47;;;;;;;3.83;3.42;;;22.20;99.90;;;;;;5009913;28;20682;-72
2021/10/04 13:03:15;;;;;;;3.45;3.15;;;22.10;99.90;;;;;;5006271;28;20274;-71